createdAt,value
2022-10-18T00:02:07.491Z,19.37
2022-10-18T00:04:34.029Z,19.56
2022-10-18T00:07:00.596Z,19.40
2022-10-18T00:09:27.153Z,19.22
2022-10-18T00:11:54.248Z,19.10
2022-10-18T00:14:20.756Z,19.33
2022-10-18T00:16:47.183Z,19.46
2022-10-18T00:19:15.358Z,19.31
2022-10-18T00:21:42.228Z,19.38
2022-10-18T00:24:08.903Z,19.43
2022-10-18T00:26:35.368Z,19.46
2022-10-18T00:29:04.387Z,19.16
2022-10-18T00:31:32.772Z,19.14
2022-10-18T00:34:01.984Z,19.31
2022-10-18T00:36:31.602Z,19.39
2022-10-18T00:38:58.424Z,19.64
2022-10-18T00:41:27.327Z,19.41
2022-10-18T00:43:56.784Z,19.28
2022-10-18T00:46:24.576Z,19.19
2022-10-18T00:48:52.422Z,19.19
2022-10-18T00:51:21.213Z,19.34
2022-10-18T00:53:49.336Z,19.12
2022-10-18T00:56:15.759Z,19.27
2022-10-18T00:58:42.818Z,19.39
2022-10-18T01:01:09.393Z,19.39
2022-10-18T01:03:36.956Z,19.28
2022-10-18T01:06:03.543Z,19.12
2022-10-18T01:08:45.058Z,19.28
2022-10-18T01:11:25.897Z,19.19
2022-10-18T01:14:01.594Z,19.52
2022-10-18T01:16:36.636Z,19.30
2022-10-18T01:19:12.474Z,19.39
2022-10-18T01:21:44.444Z,19.43
2022-10-18T01:24:45.668Z,19.45
2022-10-18T01:27:34.901Z,19.05
2022-10-18T01:30:34.666Z,19.22
2022-10-18T01:33:07.200Z,19.32
2022-10-18T01:35:39.470Z,19.14
2022-10-18T01:38:11.237Z,18.73
2022-10-18T01:40:40.018Z,19.20
2022-10-18T01:43:09.397Z,19.11
2022-10-18T01:45:37.183Z,18.80
2022-10-18T01:48:04.309Z,19.07
2022-10-18T01:50:33.105Z,19.32
2022-10-18T01:53:00.099Z,19.10
2022-10-18T01:55:33.524Z,19.06
2022-10-18T01:58:05.810Z,19.39
2022-10-18T02:00:39.929Z,19.14
2022-10-18T02:03:15.255Z,19.10
2022-10-18T02:05:48.110Z,18.98
2022-10-18T02:08:23.973Z,19.04
2022-10-18T02:10:55.358Z,19.01
2022-10-18T02:13:23.267Z,19.05
2022-10-18T02:15:57.389Z,19.19
2022-10-18T02:18:28.976Z,19.34
2022-10-18T02:20:56.326Z,19.23
2022-10-18T02:23:25.825Z,19.03
2022-10-18T02:25:53.213Z,18.45
2022-10-18T02:28:20.399Z,18.79
2022-10-18T02:30:57.653Z,18.85
2022-10-18T02:33:32.945Z,18.92
2022-10-18T02:36:04.490Z,19.03
2022-10-18T02:38:32.158Z,18.74
2022-10-18T02:40:59.159Z,19.02
2022-10-18T02:43:25.661Z,18.81
2022-10-18T02:45:53.574Z,18.74
2022-10-18T02:48:20.093Z,18.48
2022-10-18T02:50:46.499Z,18.78
2022-10-18T02:53:12.931Z,18.78
2022-10-18T02:55:39.385Z,18.88
2022-10-18T02:58:05.797Z,19.14
2022-10-18T03:00:32.206Z,18.69
2022-10-18T03:02:59.939Z,18.79
2022-10-18T03:05:26.520Z,18.50
2022-10-18T03:07:52.932Z,18.59
2022-10-18T03:10:19.335Z,18.61
2022-10-18T03:12:45.744Z,18.74
2022-10-18T03:15:12.145Z,18.93
2022-10-18T03:17:38.543Z,18.83
2022-10-18T03:20:07.655Z,18.77
2022-10-18T03:22:34.034Z,19.07
2022-10-18T03:25:00.602Z,18.89
2022-10-18T03:27:27.183Z,19.03
2022-10-18T03:29:53.556Z,18.84
2022-10-18T03:32:19.933Z,18.97
2022-10-18T03:34:46.405Z,18.73
2022-10-18T03:37:14.273Z,18.78
2022-10-18T03:39:40.659Z,18.80
2022-10-18T03:42:07.082Z,18.73
2022-10-18T03:44:33.478Z,18.88
2022-10-18T03:46:59.886Z,19.03
2022-10-18T03:49:26.338Z,18.97
2022-10-18T03:51:52.773Z,18.92
2022-10-18T03:54:20.604Z,18.56
2022-10-18T03:56:47.011Z,18.72
2022-10-18T03:59:13.474Z,18.72
2022-10-18T04:01:39.916Z,18.95
2022-10-18T04:04:06.382Z,18.81
2022-10-18T04:06:32.816Z,18.95
2022-10-18T04:08:59.204Z,18.56
2022-10-18T04:11:27.032Z,18.44
2022-10-18T04:13:53.413Z,18.62
2022-10-18T04:16:19.800Z,18.87
2022-10-18T04:18:46.240Z,18.85
2022-10-18T04:21:12.651Z,18.50
2022-10-18T04:23:39.292Z,18.58
2022-10-18T04:26:06.112Z,18.73
2022-10-18T04:28:34.996Z,18.52
2022-10-18T04:31:01.450Z,18.90
2022-10-18T04:33:28.015Z,18.68
2022-10-18T04:35:54.403Z,18.83
2022-10-18T04:38:20.811Z,18.58
2022-10-18T04:40:47.215Z,18.86
2022-10-18T04:43:13.795Z,18.68
2022-10-18T04:45:41.554Z,18.46
2022-10-18T04:48:07.966Z,18.41
2022-10-18T04:50:34.364Z,18.79
2022-10-18T04:53:00.779Z,18.46
2022-10-18T04:55:27.314Z,18.29
2022-10-18T04:57:53.713Z,18.35
2022-10-18T05:00:20.384Z,18.63
2022-10-18T05:02:48.143Z,18.64
2022-10-18T05:05:14.854Z,18.42
2022-10-18T05:07:41.399Z,18.61
2022-10-18T05:10:08.932Z,18.78
2022-10-18T05:12:35.399Z,18.67
2022-10-18T05:15:01.932Z,18.51
2022-10-18T05:17:28.405Z,18.52
2022-10-18T05:19:56.168Z,18.67
2022-10-18T05:22:22.564Z,18.20
2022-10-18T05:24:48.964Z,18.01
2022-10-18T05:27:15.371Z,18.48
2022-10-18T05:29:41.840Z,18.45
2022-10-18T05:32:08.268Z,18.60
2022-10-18T05:34:34.714Z,18.57
2022-10-18T05:37:02.542Z,18.65
2022-10-18T05:39:29.096Z,18.42
2022-10-18T05:41:55.570Z,18.54
2022-10-18T05:44:22.215Z,18.49
2022-10-18T05:46:48.715Z,18.35
2022-10-18T05:49:15.145Z,18.43
2022-10-18T05:51:41.550Z,18.53
2022-10-18T05:54:11.250Z,18.40
2022-10-18T05:59:09.456Z,18.13
2022-10-18T06:01:35.946Z,18.28
2022-10-18T06:04:02.381Z,18.61
2022-10-18T06:06:28.946Z,18.58
2022-10-18T06:08:55.363Z,18.71
2022-10-18T06:11:23.478Z,18.59
2022-10-18T06:13:51.642Z,18.58
2022-10-18T06:16:20.069Z,18.40
2022-10-18T06:18:48.105Z,18.60
2022-10-18T06:21:14.612Z,18.67
2022-10-18T06:23:41.070Z,18.69
2022-10-18T06:26:10.222Z,18.79
2022-10-18T06:28:38.307Z,18.63
2022-10-18T06:31:06.144Z,18.71
2022-10-18T06:33:33.552Z,18.35
2022-10-18T06:36:01.867Z,18.01
2022-10-18T06:38:29.347Z,18.44
2022-10-18T06:40:56.891Z,18.64
2022-10-18T06:43:23.479Z,18.37
2022-10-18T06:45:51.664Z,18.32
2022-10-18T06:50:51.435Z,18.43
2022-10-18T06:53:17.859Z,18.50
2022-10-18T06:55:44.302Z,18.42
2022-10-18T06:58:10.737Z,18.67
2022-10-18T07:00:37.183Z,18.58
2022-10-18T07:03:05.139Z,18.49
2022-10-18T07:07:59.470Z,18.57
2022-10-18T07:10:25.936Z,18.83
2022-10-18T07:12:59.235Z,18.69
2022-10-18T07:15:34.676Z,18.61
2022-10-18T07:18:01.147Z,18.47
2022-10-18T07:20:28.959Z,18.38
2022-10-18T07:22:55.793Z,18.74
2022-10-18T07:25:23.926Z,18.72
2022-10-18T07:27:52.751Z,18.86
2022-10-18T07:30:19.395Z,18.68
2022-10-18T07:32:45.801Z,18.47
2022-10-18T07:37:44.844Z,18.63
2022-10-18T07:40:12.157Z,18.78
2022-10-18T07:42:38.704Z,18.71
2022-10-18T07:45:05.540Z,18.97
2022-10-18T07:47:35.097Z,18.93
2022-10-18T07:50:01.858Z,18.68
2022-10-18T07:52:28.249Z,19.28
2022-10-18T07:54:56.033Z,18.85
2022-10-18T07:57:22.435Z,19.00
2022-10-18T07:59:48.960Z,19.07
2022-10-18T08:02:15.380Z,19.34
2022-10-18T08:04:41.787Z,19.20
2022-10-18T08:07:08.179Z,19.18
2022-10-18T08:09:34.625Z,19.49
2022-10-18T08:12:02.351Z,19.47
2022-10-18T08:14:29.196Z,19.71
2022-10-18T08:16:56.188Z,19.88
2022-10-18T08:19:22.991Z,20.02
2022-10-18T08:21:49.448Z,20.09
2022-10-18T08:24:16.064Z,20.05
2022-10-18T08:26:42.494Z,20.06
2022-10-18T08:29:22.166Z,20.21
2022-10-18T08:31:50.753Z,20.23
2022-10-18T08:34:19.672Z,20.07
2022-10-18T08:36:46.668Z,20.04
2022-10-18T08:39:13.106Z,19.59
2022-10-18T08:41:53.700Z,19.86
2022-10-18T08:44:24.342Z,19.72
2022-10-18T08:46:53.001Z,19.43
2022-10-18T08:49:25.095Z,19.66
2022-10-18T08:51:51.861Z,19.36
2022-10-18T08:54:25.755Z,19.03
2022-10-18T08:56:58.848Z,18.98
2022-10-18T08:59:31.960Z,19.48
2022-10-18T09:02:05.319Z,18.84
2022-10-18T09:04:41.338Z,19.44
2022-10-18T09:07:32.009Z,19.50
2022-10-18T09:10:08.316Z,18.88
2022-10-18T09:12:51.208Z,19.64
2022-10-18T09:15:27.785Z,18.62
2022-10-18T09:18:08.998Z,18.92
2022-10-18T09:20:47.259Z,18.73
2022-10-18T09:23:19.183Z,18.47
2022-10-18T09:25:47.796Z,19.11
2022-10-18T09:28:19.268Z,19.54
2022-10-18T09:30:57.220Z,19.61
2022-10-18T09:33:39.096Z,19.49
2022-10-18T09:36:08.557Z,19.85
2022-10-18T09:38:46.213Z,18.70
2022-10-18T09:41:18.981Z,18.73
2022-10-18T09:43:54.344Z,19.42
2022-10-18T09:46:26.717Z,19.57
2022-10-18T09:48:58.115Z,19.85
2022-10-18T09:51:28.793Z,19.65
2022-10-18T09:54:04.154Z,19.93
2022-10-18T09:56:39.403Z,20.02
2022-10-18T09:59:27.962Z,20.02
2022-10-18T10:01:56.200Z,19.96
2022-10-18T10:04:22.702Z,20.01
2022-10-18T10:06:50.077Z,20.14
2022-10-18T10:09:18.511Z,20.00
2022-10-18T10:11:47.398Z,20.26
2022-10-18T10:16:48.570Z,19.82
2022-10-18T10:19:27.900Z,19.57
2022-10-18T10:21:58.670Z,19.41
2022-10-18T10:24:33.901Z,19.37
2022-10-18T10:27:03.138Z,19.93
2022-10-18T10:29:51.914Z,19.99
2022-10-18T10:32:21.163Z,19.36
2022-10-18T10:34:49.418Z,19.46
2022-10-18T10:37:31.946Z,20.14
2022-10-18T10:40:17.783Z,19.85
2022-10-18T10:43:18.199Z,19.30
2022-10-18T10:45:57.946Z,19.77
2022-10-18T10:48:27.824Z,20.02
2022-10-18T10:51:03.108Z,20.56
2022-10-18T10:53:37.854Z,20.05
2022-10-18T10:56:06.185Z,20.15
2022-10-18T10:58:37.126Z,19.33
2022-10-18T11:01:20.196Z,18.91
2022-10-18T11:03:48.671Z,18.86
2022-10-18T11:06:46.124Z,19.58
2022-10-18T11:09:27.499Z,19.85
2022-10-18T11:12:03.606Z,20.03
2022-10-18T11:14:36.659Z,19.57
2022-10-18T11:17:12.721Z,20.02
2022-10-18T11:19:56.315Z,19.85
2022-10-18T11:22:28.530Z,18.74
2022-10-18T11:24:55.625Z,19.38
2022-10-18T11:27:26.548Z,19.34
2022-10-18T11:30:19.638Z,19.89
2022-10-18T11:32:54.835Z,19.57
2022-10-18T11:35:33.907Z,19.89
2022-10-18T11:38:15.463Z,19.98
2022-10-18T11:40:52.633Z,20.25
2022-10-18T11:43:30.371Z,20.16
2022-10-18T11:46:13.404Z,19.84
2022-10-18T11:49:05.724Z,19.48
2022-10-18T11:52:06.639Z,20.13
2022-10-18T11:54:51.903Z,20.24
2022-10-18T11:57:36.182Z,20.29
2022-10-18T12:00:14.810Z,20.29
2022-10-18T12:02:54.706Z,20.15
2022-10-18T12:05:24.327Z,19.75
2022-10-18T12:08:05.508Z,19.99
2022-10-18T12:10:45.940Z,20.31
2022-10-18T12:13:27.887Z,19.36
2022-10-18T12:15:55.455Z,19.28
2022-10-18T12:18:25.290Z,19.85
2022-10-18T12:20:54.591Z,20.16
2022-10-18T12:23:33.679Z,20.28
2022-10-18T12:26:04.360Z,20.14
2022-10-18T12:28:39.598Z,20.12
2022-10-18T12:31:13.014Z,20.30
2022-10-18T12:33:44.974Z,20.15
2022-10-18T12:36:18.770Z,19.93
2022-10-18T12:38:48.664Z,19.94
2022-10-18T12:41:20.997Z,20.15
2022-10-18T12:43:51.803Z,20.18
2022-10-18T12:46:18.289Z,20.39
2022-10-18T12:48:59.743Z,20.40
2022-10-18T12:51:26.205Z,19.79
2022-10-18T12:54:08.659Z,19.78
2022-10-18T12:56:39.431Z,19.99
2022-10-18T12:59:40.548Z,20.18
2022-10-18T13:02:24.068Z,19.41
2022-10-18T13:04:50.654Z,19.91
2022-10-18T13:07:33.673Z,19.70
2022-10-18T13:10:33.596Z,19.70
2022-10-18T13:13:39.719Z,19.52
2022-10-18T13:16:29.232Z,19.43
2022-10-18T13:18:58.642Z,19.99
2022-10-18T13:21:44.318Z,19.90
2022-10-18T13:24:26.573Z,19.56
2022-10-18T13:27:24.507Z,19.85
2022-10-18T13:30:09.926Z,19.89
2022-10-18T13:32:48.027Z,19.49
2022-10-18T13:35:48.730Z,19.79
2022-10-18T13:38:46.556Z,19.79
2022-10-18T13:41:15.752Z,19.02
2022-10-18T13:44:15.123Z,19.15
2022-10-18T13:47:18.005Z,19.36
2022-10-18T13:50:14.253Z,18.93
2022-10-18T13:53:07.404Z,19.48
2022-10-18T13:55:49.815Z,18.99
2022-10-18T13:58:30.292Z,18.95
2022-10-18T14:01:07.565Z,19.20
2022-10-18T14:04:06.396Z,19.76
2022-10-18T14:06:35.193Z,19.59
2022-10-18T14:09:14.190Z,19.04
2022-10-18T14:11:56.583Z,19.51
2022-10-18T14:14:30.179Z,19.41
2022-10-18T14:17:03.449Z,19.34
2022-10-18T14:19:36.318Z,19.38
2022-10-18T14:22:10.322Z,19.23
2022-10-18T14:24:40.428Z,19.21
2022-10-18T14:27:11.536Z,18.98
2022-10-18T14:29:38.552Z,19.17
2022-10-18T14:32:09.300Z,19.31
2022-10-18T14:34:36.349Z,18.95
2022-10-18T14:37:03.141Z,19.37
2022-10-18T14:39:29.563Z,18.97
2022-10-18T14:41:58.602Z,19.05
2022-10-18T14:44:27.423Z,18.93
2022-10-18T14:47:00.412Z,18.46
2022-10-18T14:49:26.917Z,19.00
2022-10-18T14:51:55.750Z,18.50
2022-10-18T14:54:26.239Z,18.78
2022-10-18T14:56:57.063Z,18.99
2022-10-18T14:59:26.261Z,19.22
2022-10-18T15:01:56.015Z,19.06
2022-10-18T15:04:27.821Z,18.43
2022-10-18T15:06:55.800Z,18.85
2022-10-18T15:09:23.722Z,18.39
2022-10-18T15:11:50.616Z,19.01
2022-10-18T15:14:19.931Z,18.88
2022-10-18T15:16:48.772Z,19.00
2022-10-18T15:19:33.355Z,18.54
2022-10-18T15:22:31.390Z,18.42
2022-10-18T15:25:26.768Z,18.17
2022-10-18T15:27:56.568Z,18.74
2022-10-18T15:30:27.104Z,18.49
2022-10-18T15:32:55.718Z,18.31
2022-10-18T15:35:26.577Z,18.04
2022-10-18T15:37:54.514Z,18.47
2022-10-18T15:40:37.310Z,18.41
2022-10-18T15:43:06.282Z,18.12
2022-10-18T15:45:45.295Z,18.17
2022-10-18T15:48:22.007Z,17.99
2022-10-18T15:50:50.838Z,18.17
2022-10-18T15:53:31.166Z,18.27
2022-10-18T15:55:59.994Z,17.84
2022-10-18T15:58:28.872Z,17.94
2022-10-18T16:00:59.828Z,18.19
2022-10-18T16:03:27.690Z,17.88
2022-10-18T16:05:58.418Z,17.48
2022-10-18T16:08:27.251Z,17.74
2022-10-18T16:10:53.714Z,17.91
2022-10-18T16:13:20.470Z,17.54
2022-10-18T16:15:46.939Z,17.27
2022-10-18T16:18:17.338Z,17.27
2022-10-18T16:20:44.106Z,17.49
2022-10-18T16:23:17.484Z,17.71
2022-10-18T16:25:43.952Z,17.68
2022-10-18T16:28:14.291Z,17.56
2022-10-18T16:30:43.443Z,17.71
2022-10-18T16:33:09.870Z,17.68
2022-10-18T16:35:37.790Z,17.39
2022-10-18T16:38:04.269Z,17.10
2022-10-18T16:40:30.679Z,17.20
2022-10-18T16:42:57.116Z,17.42
2022-10-18T16:45:23.613Z,17.33
2022-10-18T16:47:50.099Z,17.28
2022-10-18T16:50:19.036Z,17.67
2022-10-18T16:52:46.805Z,17.72
2022-10-18T16:55:13.464Z,17.51
2022-10-18T16:57:39.909Z,17.20
2022-10-18T17:00:07.371Z,17.37
2022-10-18T17:02:34.008Z,17.19
2022-10-18T17:05:00.760Z,17.32
2022-10-18T17:07:27.191Z,17.29
2022-10-18T17:09:54.912Z,16.81
2022-10-18T17:12:21.319Z,17.13
2022-10-18T17:14:47.780Z,17.47
2022-10-18T17:17:14.223Z,17.05
2022-10-18T17:19:40.641Z,16.71
2022-10-18T17:22:07.081Z,16.85
2022-10-18T17:24:33.487Z,16.71
2022-10-18T17:27:01.439Z,16.89
2022-10-18T17:29:27.894Z,16.89
2022-10-18T17:31:54.288Z,16.77
2022-10-18T17:34:21.505Z,16.80
2022-10-18T17:36:48.112Z,16.56
2022-10-18T17:39:14.541Z,16.61
2022-10-18T17:41:40.969Z,16.25
2022-10-18T17:44:08.714Z,16.45
2022-10-18T17:46:35.579Z,16.34
2022-10-18T17:49:02.847Z,16.27
2022-10-18T17:51:29.362Z,16.18
2022-10-18T17:53:55.919Z,16.15
2022-10-18T17:56:22.380Z,16.27
2022-10-18T17:58:50.361Z,16.37
2022-10-18T18:01:20.944Z,16.35
2022-10-18T18:03:47.666Z,16.14
2022-10-18T18:06:16.191Z,16.31
2022-10-18T18:08:42.632Z,16.61
2022-10-18T18:11:09.058Z,16.22
2022-10-18T18:13:35.512Z,15.73
2022-10-18T18:16:10.838Z,16.30
2022-10-18T18:18:38.776Z,15.99
2022-10-18T18:21:05.514Z,16.25
2022-10-18T18:23:32.238Z,16.24
2022-10-18T18:25:58.828Z,15.85
2022-10-18T18:28:25.321Z,16.07
2022-10-18T18:30:51.796Z,15.87
2022-10-18T18:33:18.269Z,15.88
2022-10-18T18:35:54.087Z,16.04
2022-10-18T18:38:20.534Z,15.79
2022-10-18T18:40:46.981Z,16.25
2022-10-18T18:43:28.212Z,15.61
2022-10-18T18:45:54.680Z,15.74
2022-10-18T18:48:21.099Z,15.82
2022-10-18T18:50:48.898Z,15.90
2022-10-18T18:53:15.592Z,15.96
2022-10-18T18:55:42.029Z,16.01
2022-10-18T18:58:08.494Z,15.89
2022-10-18T19:00:40.382Z,16.10
2022-10-18T19:03:10.405Z,16.04
2022-10-18T19:05:37.081Z,15.94
2022-10-18T19:08:05.738Z,15.81
2022-10-18T19:10:32.281Z,15.88
2022-10-18T19:12:59.047Z,15.83
2022-10-18T19:15:25.664Z,15.95
2022-10-18T19:17:52.100Z,15.79
2022-10-18T19:20:18.753Z,15.68
2022-10-18T19:22:45.453Z,15.86
2022-10-18T19:25:13.204Z,15.95
2022-10-18T19:27:39.745Z,16.03
2022-10-18T19:30:10.798Z,15.37
2022-10-18T19:32:37.235Z,15.34
2022-10-18T19:35:04.078Z,15.58
2022-10-18T19:37:30.627Z,15.39
2022-10-18T19:39:57.181Z,15.64
2022-10-18T19:42:27.511Z,15.38
2022-10-18T19:44:56.875Z,15.84
2022-10-18T19:47:23.310Z,15.70
2022-10-18T19:49:49.740Z,15.90
2022-10-18T19:52:16.182Z,15.36
2022-10-18T19:54:42.628Z,15.56
2022-10-18T19:57:09.151Z,15.84
2022-10-18T19:59:36.989Z,15.63
2022-10-18T20:02:03.487Z,15.90
2022-10-18T20:04:30.142Z,16.03
2022-10-18T20:06:56.568Z,15.69
2022-10-18T20:09:22.992Z,15.80
2022-10-18T20:11:49.413Z,15.82
2022-10-18T20:14:15.825Z,15.91
2022-10-18T20:16:43.619Z,16.04
2022-10-18T20:19:10.538Z,16.01
2022-10-18T20:21:37.236Z,15.51
2022-10-18T20:24:04.932Z,15.52
2022-10-18T20:26:31.996Z,15.74
2022-10-18T20:28:58.614Z,15.31
2022-10-18T20:31:26.668Z,15.94
2022-10-18T20:33:56.089Z,15.41
2022-10-18T20:36:22.833Z,15.74
2022-10-18T20:38:49.279Z,15.05
2022-10-18T20:41:21.144Z,15.83
2022-10-18T20:43:51.294Z,15.57
2022-10-18T20:46:17.964Z,15.97
2022-10-18T20:48:44.381Z,15.46
2022-10-18T20:51:12.513Z,15.46
2022-10-18T20:53:39.808Z,15.56
2022-10-18T20:56:08.433Z,15.45
2022-10-18T20:58:36.167Z,15.60
2022-10-18T21:01:07.212Z,15.14
2022-10-18T21:03:36.337Z,15.85
2022-10-18T21:06:08.462Z,15.48
2022-10-18T21:08:36.322Z,15.92
2022-10-18T21:11:03.776Z,15.33
2022-10-18T21:13:30.438Z,15.80
2022-10-18T21:15:57.782Z,15.78
2022-10-18T21:18:25.071Z,15.63
2022-10-18T21:20:51.907Z,15.80
2022-10-18T21:23:18.601Z,15.33
2022-10-18T21:25:46.686Z,15.33
2022-10-18T21:28:13.610Z,15.57
2022-10-18T21:30:40.264Z,15.52
2022-10-18T21:33:07.028Z,15.64
2022-10-18T21:35:35.525Z,15.31
2022-10-18T21:38:02.018Z,15.31
2022-10-18T21:40:28.518Z,15.38
2022-10-18T21:42:56.308Z,15.73
2022-10-18T21:45:22.711Z,15.59
2022-10-18T21:47:49.388Z,15.09
2022-10-18T21:50:16.144Z,15.32
2022-10-18T21:52:42.567Z,15.34
2022-10-18T21:55:09.483Z,14.92
2022-10-18T22:00:12.368Z,15.16
2022-10-18T22:02:38.804Z,14.87
2022-10-18T22:05:08.310Z,15.16
2022-10-18T22:07:37.895Z,15.75
2022-10-18T22:10:04.753Z,15.51
2022-10-18T22:12:31.241Z,15.33
2022-10-18T22:14:57.696Z,15.54
2022-10-18T22:17:25.434Z,15.47
2022-10-18T22:19:51.816Z,14.99
2022-10-18T22:22:18.232Z,14.55
2022-10-18T22:24:44.616Z,15.46
2022-10-18T22:27:11.042Z,15.60
2022-10-18T22:29:37.683Z,15.08
2022-10-18T22:32:04.210Z,14.73
2022-10-18T22:34:31.930Z,15.09
2022-10-18T22:36:58.361Z,15.51
2022-10-18T22:39:24.878Z,15.41
2022-10-18T22:41:51.343Z,15.20
2022-10-18T22:44:17.746Z,15.12
2022-10-18T22:46:44.133Z,14.79
2022-10-18T22:49:11.546Z,14.77
2022-10-18T22:51:39.612Z,14.80
2022-10-18T22:54:06.164Z,14.71
2022-10-18T22:56:32.704Z,14.94
2022-10-18T22:58:59.121Z,14.82
2022-10-18T23:01:25.539Z,14.98
2022-10-18T23:03:52.933Z,15.31
2022-10-18T23:06:22.319Z,14.61
2022-10-18T23:08:51.120Z,14.76
2022-10-18T23:11:18.387Z,14.83
2022-10-18T23:13:45.283Z,15.15
2022-10-18T23:16:11.839Z,14.45
2022-10-18T23:21:08.214Z,14.48
2022-10-18T23:23:36.660Z,14.37
2022-10-18T23:26:06.947Z,14.18
2022-10-18T23:28:34.369Z,14.58
2022-10-18T23:31:05.325Z,14.54
2022-10-18T23:33:31.720Z,14.32
2022-10-18T23:35:59.186Z,14.66
2022-10-18T23:38:25.612Z,14.68
2022-10-18T23:40:52.015Z,14.75
2022-10-18T23:43:19.907Z,14.52
2022-10-18T23:48:17.871Z,14.66
2022-10-18T23:50:44.311Z,14.43
2022-10-18T23:53:11.067Z,14.64
2022-10-18T23:55:37.490Z,15.19
2022-10-18T23:58:03.998Z,15.18
